Main page
METAR-TAF:

METAR-TAF

Airports :

Norman Manley International Airport

Kingston, Jamaica

latitude: 17-56N, longitude: 076-47W, elevation: 3 m

Current weather observation

The report was made 57 minutes ago, at 00:00 UTC
Wind 5 kt from the North
Temperature 25°C
Humidity 79%
Pressure 1016 hPa
Visibility 10 km or more
Few clouds at a height of 2200 ft
Scattered clouds at a height of 3400 ft

METAR: MKJP 160000Z 35005KT 9999 FEW022 SCT034 25/21 Q1016

Time: 19:57 (00:57 UTC)

Forecast

The report was made 1 hour and 42 minutes ago, at 23:15 UTC
Forecast valid from 16 at 00 UTC to 16 at 24 UTC
Wind 4 kt from the North/Northwest
Visibility 10 km or more
Few clouds at a height of 2200 ft
Becoming
from 16 at 14 UTC to 16 at 16 UTC
Wind 10 kt from the South
Probability 30% :
Temporary
from 16 at 18 UTC to 16 at 24 UTC
Broken clouds at a height of 2000 ft
rain showers

TAF: MKJP 152315Z 1600/1624 34004KT 9999 FEW022 BECMG 1614/1616 17010KT PROB30 TEMPO 1618/1624 SHRA BKN020

Weather observations and forecasts of more than 4000 airports (METAR and TAF reports).

The available stations are represented by yellow and red dots on the map.

Hover mouse over dot to see the name of the station.

Then click to see weather observations and forecasts.

To change the map : click on the green buttons with a black cross to zoom in, on the green button with a dash to zoom out, or on the green arrows for adjacent maps.


METAR-TAF: